Time;durP1;ratioP1;P1;durP2;ratioP2;P2;SDS_P1;SDS_P2;PMS_P1;PMS_P2;Temp;Humidity;BMP_temperature;BMP_pressure;BME280_temperature;BME280_humidity;BME280_pressure;Samples;Min_cycle;Max_cycle;Signal;HPM_P1;HPM_P2
2022/02/23 00:00:52;;;;;;;36.42;25.70;;;;;;;10.92;68.46;100980.56;5046668;27;103837;-49
2022/02/23 00:03:19;;;;;;;34.08;26.20;;;;;;;10.92;68.50;100979.75;5032038;27;103955;-49
2022/02/23 00:05:46;;;;;;;32.85;25.23;;;;;;;10.92;68.36;100987.91;5032203;27;103366;-49
2022/02/23 00:08:12;;;;;;;35.38;26.35;;;;;;;10.92;68.84;100972.38;5031210;27;103553;-49
2022/02/23 00:10:39;;;;;;;30.05;24.40;;;;;;;10.93;68.66;100978.69;5027993;27;102537;-49
2022/02/23 00:13:05;;;;;;;33.85;24.90;;;;;;;10.92;68.78;100988.72;5051205;27;103980;-49
2022/02/23 00:15:32;;;;;;;30.75;24.27;;;;;;;10.92;68.57;100982.47;5040969;27;102167;-49
2022/02/23 00:17:58;;;;;;;30.10;23.52;;;;;;;10.92;68.61;100987.91;5042320;27;102863;-49
2022/02/23 00:20:25;;;;;;;32.28;23.95;;;;;;;10.91;68.42;100984.38;5032804;27;102737;-49
2022/02/23 00:22:52;;;;;;;33.15;24.30;;;;;;;10.92;68.51;100987.91;5057517;27;104094;-49
2022/02/23 00:25:19;;;;;;;32.42;25.40;;;;;;;10.91;68.79;100997.19;5041486;27;102533;-49
2022/02/23 00:27:45;;;;;;;32.92;25.30;;;;;;;10.91;68.53;100991.72;5048852;27;102446;-49
2022/02/23 00:30:11;;;;;;;32.03;23.70;;;;;;;10.91;68.75;101003.44;5044920;27;102391;-49
2022/02/23 00:32:38;;;;;;;32.97;23.45;;;;;;;10.91;68.60;101008.88;5035280;27;103960;-50
2022/02/23 00:35:05;;;;;;;32.55;23.52;;;;;;;10.91;68.62;101013.50;5032071;27;101990;-50
2022/02/23 00:37:32;;;;;;;31.85;23.90;;;;;;;10.91;68.61;101019.78;5045461;27;102365;-50
2022/02/23 00:40:01;;;;;;;32.67;24.08;;;;;;;10.91;68.51;101017.06;5042534;27;102367;-49
2022/02/23 00:42:27;;;;;;;29.92;22.90;;;;;;;10.91;68.56;101027.94;5030104;27;103708;-49
2022/02/23 00:44:54;;;;;;;29.17;23.33;;;;;;;10.91;68.54;101025.22;5043761;27;102843;-49
2022/02/23 00:47:20;;;;;;;31.35;23.83;;;;;;;10.91;68.52;101024.41;5046469;27;102869;-49
2022/02/23 00:49:47;;;;;;;29.48;22.48;;;;;;;10.91;68.50;101022.50;5047893;27;102160;-49
2022/02/23 00:52:14;;;;;;;32.67;23.98;;;;;;;10.91;68.28;101029.84;5052341;27;103924;-49
2022/02/23 00:54:41;;;;;;;30.05;22.60;;;;;;;10.91;68.52;101024.41;5047670;27;102204;-49
2022/02/23 00:57:09;;;;;;;28.80;22.42;;;;;;;10.91;68.34;101018.97;5048368;27;102381;-49
2022/02/23 00:59:37;;;;;;;30.92;22.88;;;;;;;10.91;68.51;101029.84;5047440;27;102828;-49
2022/02/23 01:02:04;;;;;;;29.73;22.13;;;;;;;10.90;68.10;101029.03;5043745;27;103873;-50
2022/02/23 01:04:30;;;;;;;28.27;21.98;;;;;;;10.91;68.50;101024.41;5045083;27;102124;-49
2022/02/23 01:06:57;;;;;;;28.60;22.83;;;;;;;10.91;68.58;101029.84;5036524;27;102347;-49
2022/02/23 01:09:24;;;;;;;25.20;20.90;;;;;;;10.90;68.89;101030.94;5034497;27;103472;-49
2022/02/23 01:11:50;;;;;;;30.75;22.02;;;;;;;10.90;68.79;101029.03;5042112;27;103933;-49
2022/02/23 01:14:18;;;;;;;26.65;21.02;;;;;;;10.90;68.51;101031.75;5034652;27;103169;-49
2022/02/23 01:16:45;;;;;;;26.95;21.42;;;;;;;10.91;68.71;101035.28;5037107;27;102759;-50
2022/02/23 01:19:11;;;;;;;28.77;20.60;;;;;;;10.90;68.69;101039.13;5046259;27;103971;-50
2022/02/23 01:21:38;;;;;;;27.27;20.38;;;;;;;10.90;68.51;101034.47;5041319;27;104266;-49
2022/02/23 01:24:05;;;;;;;26.52;20.00;;;;;;;10.90;68.33;101036.38;5047188;27;102489;-50
2022/02/23 01:26:32;;;;;;;28.45;21.13;;;;;;;10.90;68.50;101041.84;5045744;27;103303;-49
2022/02/23 01:28:58;;;;;;;27.52;21.05;;;;;;;10.90;68.62;101039.13;5036580;27;102758;-50
2022/02/23 01:31:27;;;;;;;27.17;20.52;;;;;;;10.90;68.62;101041.84;5033347;27;103980;-49
2022/02/23 01:33:53;;;;;;;25.15;19.15;;;;;;;10.91;68.74;101043.47;5038074;27;105502;-49
2022/02/23 01:36:22;;;;;;;26.20;20.00;;;;;;;10.91;68.51;101043.47;5030371;27;103737;-49
2022/02/23 01:38:48;;;;;;;26.55;19.40;;;;;;;10.90;68.85;101044.56;5040142;27;102399;-50
2022/02/23 01:41:19;;;;;;;24.00;19.80;;;;;;;10.91;68.24;101046.19;5044911;27;104001;-50
2022/02/23 01:43:46;;;;;;;26.05;19.60;;;;;;;10.90;68.18;101055.44;5045328;27;102395;-49
2022/02/23 01:46:13;;;;;;;25.20;19.15;;;;;;;10.91;68.73;101054.34;5030312;27;103133;-50
2022/02/23 01:48:41;;;;;;;24.10;18.67;;;;;;;10.89;68.92;101048.34;5040533;27;102800;-53
2022/02/23 01:51:08;;;;;;;23.92;18.30;;;;;;;10.90;68.21;101044.56;5049624;27;103945;-50
2022/02/23 01:53:35;;;;;;;27.42;18.90;;;;;;;10.89;68.34;101048.34;5041564;27;102380;-49
2022/02/23 01:56:02;;;;;;;23.70;18.60;;;;;;;10.89;68.73;101057.34;5043529;27;102168;-49
2022/02/23 01:58:29;;;;;;;24.08;18.30;;;;;;;10.90;68.22;101056.25;5048093;27;102438;-50
2022/02/23 02:00:57;;;;;;;23.23;18.98;;;;;;;10.90;68.21;101059.00;5054074;27;103719;-49
2022/02/23 02:03:24;;;;;;;23.38;18.20;;;;;;;10.91;68.49;101054.34;5048792;27;102303;-49
2022/02/23 02:05:52;;;;;;;22.67;18.13;;;;;;;10.90;68.63;101055.44;5028446;27;102149;-49
2022/02/23 02:08:18;;;;;;;23.20;18.10;;;;;;;10.90;68.54;101060.91;5028331;27;102544;-49
2022/02/23 02:10:45;;;;;;;22.55;17.65;;;;;;;10.91;68.22;101062.53;5025631;27;103854;-50
2022/02/23 02:13:11;;;;;;;23.15;17.45;;;;;;;10.91;68.13;101062.53;5023007;27;102266;-49
2022/02/23 02:15:38;;;;;;;24.05;18.50;;;;;;;10.91;68.08;101067.97;5046458;27;102553;-49
2022/02/23 02:18:05;;;;;;;24.13;17.88;;;;;;;10.90;68.46;101066.34;5026073;27;102485;-49
2022/02/23 02:20:32;;;;;;;25.40;18.77;;;;;;;10.91;68.70;101065.25;5039847;27;104056;-49
2022/02/23 02:23:00;;;;;;;22.17;16.98;;;;;;;10.89;68.67;101067.41;5048052;27;105236;-50
2022/02/23 02:25:26;;;;;;;23.58;17.77;;;;;;;10.91;68.21;101076.13;5043957;27;102234;-49
2022/02/23 02:27:53;;;;;;;21.27;17.67;;;;;;;10.91;68.32;101076.13;5048801;27;102376;-50
2022/02/23 02:30:19;;;;;;;24.42;18.40;;;;;;;10.90;68.82;101074.50;5042268;27;104152;-50
2022/02/23 02:32:46;;;;;;;22.42;17.08;;;;;;;10.89;68.23;101081.03;5043627;27;102682;-49
2022/02/23 02:35:15;;;;;;;21.58;17.83;;;;;;;10.90;68.40;101091.66;5024397;27;102510;-53
2022/02/23 02:37:42;;;;;;;21.33;16.38;;;;;;;10.90;68.62;101085.41;5048114;27;102426;-49
2022/02/23 02:40:11;;;;;;;21.00;16.35;;;;;;;10.90;68.74;101090.84;5035344;27;104069;-50
2022/02/23 02:42:37;;;;;;;18.00;12.63;;;;;;;10.89;68.89;101103.66;5048648;27;102309;-49
2022/02/23 02:45:05;;;;;;;20.67;16.92;;;;;;;10.90;68.35;101099.03;5024885;27;102104;-50
2022/02/23 02:47:32;;;;;;;20.85;16.08;;;;;;;10.90;68.64;101102.56;5028201;27;102869;-49
2022/02/23 02:49:58;;;;;;;21.25;16.65;;;;;;;10.90;68.53;101105.28;5052741;27;103907;-50
2022/02/23 02:52:25;;;;;;;19.23;15.52;;;;;;;10.90;68.42;101099.03;5042900;27;102731;-49
2022/02/23 02:54:51;;;;;;;19.08;15.70;;;;;;;10.90;68.62;101099.03;5043001;27;102159;-49
2022/02/23 02:57:19;;;;;;;20.92;16.05;;;;;;;10.90;68.26;101109.91;5028757;27;102232;-50
2022/02/23 02:59:45;;;;;;;21.95;16.40;;;;;;;10.91;68.35;101114.25;5034987;27;102978;-49
2022/02/23 03:02:12;;;;;;;20.50;16.35;;;;;;;10.90;68.39;101118.06;5045231;27;102454;-49
2022/02/23 03:04:38;;;;;;;21.83;17.25;;;;;;;10.90;68.14;101126.25;5035641;27;103073;-48
2022/02/23 03:07:05;;;;;;;20.83;16.60;;;;;;;10.90;68.13;101131.69;5052979;27;102407;-49
2022/02/23 03:09:31;;;;;;;18.35;15.13;;;;;;;10.89;68.71;101125.44;5047982;27;103891;-49
2022/02/23 03:11:58;;;;;;;20.52;16.65;;;;;;;10.89;68.23;101133.59;5046343;27;102687;-49
2022/02/23 03:14:26;;;;;;;19.23;15.25;;;;;;;10.90;68.25;101137.13;5051086;27;102362;-50
2022/02/23 03:16:52;;;;;;;20.50;16.35;;;;;;;10.89;68.20;101144.50;5036903;27;102330;-49
2022/02/23 03:19:19;;;;;;;19.45;15.93;;;;;;;10.90;68.38;101150.75;5027277;27;103024;-49
2022/02/23 03:21:45;;;;;;;19.77;15.23;;;;;;;10.90;68.60;101161.66;5042332;27;102198;-49
2022/02/23 03:24:15;;;;;;;19.15;15.45;;;;;;;10.90;68.13;101153.47;5041624;27;102561;-49
2022/02/23 03:26:41;;;;;;;19.42;14.32;;;;;;;10.89;68.21;101154.53;5036235;27;102257;-49
2022/02/23 03:29:08;;;;;;;19.40;15.27;;;;;;;10.90;68.86;101159.75;5036322;27;104092;-50
2022/02/23 03:31:35;;;;;;;19.38;16.27;;;;;;;10.89;68.23;101158.09;5024211;27;102706;-50
2022/02/23 03:34:02;;;;;;;18.35;14.77;;;;;;;10.89;68.15;101155.38;5025174;28;102172;-49
2022/02/23 03:36:28;;;;;;;18.27;14.20;;;;;;;10.89;67.97;101162.72;5021873;28;102247;-49
2022/02/23 03:38:55;;;;;;;20.77;15.52;;;;;;;10.88;68.49;101163.78;5025860;27;104871;-50
2022/02/23 03:41:21;;;;;;;18.60;14.52;;;;;;;10.89;68.22;101168.16;5037322;27;102295;-50
2022/02/23 03:43:48;;;;;;;18.30;14.75;;;;;;;10.89;68.90;101174.44;5036341;27;102210;-50
2022/02/23 03:46:15;;;;;;;20.73;14.82;;;;;;;10.89;68.44;101168.16;5026301;27;102221;-49
2022/02/23 03:48:43;;;;;;;18.92;15.27;;;;;;;10.89;68.58;101173.59;5028454;27;103953;-49
2022/02/23 03:51:10;;;;;;;20.60;14.48;;;;;;;10.89;68.37;101176.31;5028341;27;102806;-50
2022/02/23 03:53:36;;;;;;;17.33;14.00;;;;;;;10.89;68.41;101169.00;5015811;27;104008;-49
2022/02/23 03:56:03;;;;;;;17.85;14.60;;;;;;;10.89;68.29;101176.31;5021350;27;102525;-49
2022/02/23 03:58:29;;;;;;;16.10;14.38;;;;;;;10.89;68.66;101179.03;5024143;27;104138;-49
2022/02/23 04:00:56;;;;;;;19.75;14.43;;;;;;;10.88;68.30;101178.22;5022699;27;102326;-49
2022/02/23 04:03:22;;;;;;;17.73;13.88;;;;;;;10.89;68.10;101179.03;5020546;27;102893;-49
2022/02/23 04:05:50;;;;;;;17.85;14.05;;;;;;;10.88;68.61;101188.31;5028443;27;104120;-49
2022/02/23 04:08:16;;;;;;;18.42;13.85;;;;;;;10.88;68.23;101188.31;5022161;27;103930;-50
2022/02/23 04:10:43;;;;;;;17.48;14.20;;;;;;;10.88;68.40;101193.75;5035722;27;102462;-49
2022/02/23 04:13:09;;;;;;;19.20;13.98;;;;;;;10.88;68.38;101193.75;5024212;27;103997;-49
2022/02/23 04:15:36;;;;;;;16.50;13.70;;;;;;;10.87;68.24;101192.94;5031231;27;102609;-49
2022/02/23 04:18:03;;;;;;;16.17;12.75;;;;;;;10.88;68.60;101199.19;5028931;27;103913;-49
2022/02/23 04:20:29;;;;;;;17.88;13.60;;;;;;;10.89;68.47;101209.00;5037580;27;102502;-49
2022/02/23 04:22:57;;;;;;;17.67;13.90;;;;;;;10.89;68.60;101217.16;5042288;27;102367;-50
2022/02/23 04:25:24;;;;;;;15.27;12.63;;;;;;;10.88;68.60;101218.25;5050438;27;102874;-48
2022/02/23 04:27:50;;;;;;;17.40;13.23;;;;;;;10.88;68.17;101220.97;5056053;27;103539;-49
2022/02/23 04:30:17;;;;;;;16.52;13.10;;;;;;;10.88;68.40;101220.97;5033354;27;105172;-49
2022/02/23 04:32:43;;;;;;;17.40;12.45;;;;;;;10.88;68.30;101226.44;5026742;27;102659;-49
2022/02/23 04:35:10;;;;;;;14.70;12.70;;;;;;;10.88;68.12;101226.44;5026333;27;102557;-49
2022/02/23 04:37:36;;;;;;;15.82;12.60;;;;;;;10.87;68.41;101238.41;5024762;27;103959;-49
2022/02/23 04:40:06;;;;;;;16.13;12.25;;;;;;;10.87;68.46;101231.06;5035205;27;102393;-49
2022/02/23 04:42:33;;;;;;;17.35;12.65;;;;;;;10.86;68.18;101234.88;5019149;27;102220;-49
2022/02/23 04:45:02;;;;;;;14.98;12.55;;;;;;;10.88;68.27;101237.31;5041970;27;102748;-49
2022/02/23 04:47:30;;;;;;;15.57;12.50;;;;;;;10.87;68.43;101241.13;5028954;27;104068;-49
2022/02/23 04:49:57;;;;;;;14.30;11.75;;;;;;;10.87;68.29;101241.13;5027043;27;102347;-49
2022/02/23 04:52:26;;;;;;;15.27;12.02;;;;;;;10.87;67.94;101241.13;5024190;27;102424;-49
2022/02/23 04:54:53;;;;;;;;;;;;;;;10.87;68.05;101241.13;5028621;27;102339;-49
2022/02/23 04:57:22;;;;;;;15.18;11.75;;;;;;;10.86;68.16;101244.94;5035476;27;104178;-50
2022/02/23 04:59:48;;;;;;;;;;;;;;;10.86;68.62;101255.84;5027851;27;102605;-50
2022/02/23 05:02:15;;;;;;;15.02;11.70;;;;;;;10.87;68.58;101254.75;5019078;27;104341;-52
2022/02/23 05:04:42;;;;;;;15.88;11.80;;;;;;;10.85;68.22;101254.16;5025802;27;102291;-49
2022/02/23 05:07:09;;;;;;;13.68;11.07;;;;;;;10.85;68.24;101259.63;5029294;27;104041;-49
2022/02/23 05:09:37;;;;;;;14.57;11.90;;;;;;;10.87;68.58;101262.91;5027847;27;102127;-49
2022/02/23 05:12:06;;;;;;;15.32;12.00;;;;;;;10.87;68.64;101273.81;5024749;27;102646;-49
2022/02/23 05:14:34;;;;;;;12.47;10.77;;;;;;;10.88;68.57;101272.72;5032615;27;102145;-48
2022/02/23 05:17:01;;;;;;;12.80;10.77;;;;;;;10.85;68.21;101274.03;5022024;27;103875;-49
2022/02/23 05:19:29;;;;;;;14.23;11.30;;;;;;;10.87;68.46;101280.06;5037846;27;102068;-49
2022/02/23 05:21:56;;;;;;;12.73;10.32;;;;;;;10.88;68.56;101289.06;5026773;27;102290;-49
2022/02/23 05:24:23;;;;;;;13.35;10.75;;;;;;;10.87;68.01;101295.59;5047692;27;102169;-51
2022/02/23 05:26:50;;;;;;;12.20;10.60;;;;;;;10.87;68.64;101295.59;5026299;27;103889;-49
2022/02/23 05:29:16;;;;;;;12.90;10.63;;;;;;;10.88;68.57;101297.22;5045047;27;102456;-50
2022/02/23 05:31:44;;;;;;;13.68;10.85;;;;;;;10.88;68.83;101303.50;5027159;27;102587;-49
2022/02/23 05:34:10;;;;;;;14.15;11.10;;;;;;;10.90;68.83;101311.41;5027879;27;102690;-49
2022/02/23 05:36:37;;;;;;;12.90;10.68;;;;;;;10.91;68.90;101313.06;5043525;27;104142;-50
2022/02/23 05:39:03;;;;;;;12.32;10.35;;;;;;;10.92;68.98;101309.22;5048973;27;102230;-50
2022/02/23 05:41:30;;;;;;;13.13;10.73;;;;;;;10.92;69.33;101325.56;5045485;27;102779;-49
2022/02/23 05:43:57;;;;;;;13.90;11.80;;;;;;;10.92;69.26;101326.41;5045557;27;103892;-49
2022/02/23 05:46:23;;;;;;;13.55;10.90;;;;;;;10.92;69.24;101326.41;5049480;27;103950;-49
2022/02/23 05:48:52;;;;;;;13.82;10.65;;;;;;;10.93;69.28;101332.69;5040553;27;102049;-49
2022/02/23 05:51:27;;;;;;;13.52;10.80;;;;;;;10.92;69.02;101318.22;5029646;27;102336;-49
2022/02/23 05:53:54;;;;;;;12.35;10.60;;;;;;;10.92;69.20;101326.41;5027073;27;102685;-49
2022/02/23 05:56:20;;;;;;;11.00;9.52;;;;;;;10.92;68.79;101325.56;5026520;27;103993;-50
2022/02/23 05:58:47;;;;;;;13.35;10.80;;;;;;;10.92;68.57;101331.84;5027726;27;102471;-49
2022/02/23 06:01:14;;;;;;;13.07;10.13;;;;;;;10.92;69.05;101331.03;5027218;27;102772;-50
2022/02/23 06:03:40;;;;;;;12.68;10.13;;;;;;;10.93;68.96;101338.13;5031688;27;102431;-49
2022/02/23 06:06:08;;;;;;;11.98;9.85;;;;;;;10.93;68.97;101332.69;5032954;27;104327;-49
2022/02/23 06:08:36;;;;;;;13.98;10.60;;;;;;;10.92;68.96;101328.31;5027935;27;102080;-49
2022/02/23 06:11:03;;;;;;;14.20;10.15;;;;;;;10.93;68.60;101338.13;5022541;27;103165;-49
2022/02/23 06:13:30;;;;;;;12.15;10.07;;;;;;;10.93;68.96;101341.66;5021806;27;102930;-49
2022/02/23 06:15:57;;;;;;;13.20;10.73;;;;;;;10.92;68.23;101333.75;5012721;27;104839;-49
2022/02/23 06:18:24;;;;;;;13.88;10.05;;;;;;;10.92;68.73;101339.19;5018129;27;106714;-49
2022/02/23 06:20:50;;;;;;;12.93;10.43;;;;;;;10.92;68.42;101348.19;5027071;27;103812;-49
2022/02/23 06:23:18;;;;;;;13.18;10.10;;;;;;;10.91;68.60;101354.72;5024676;27;102107;-49
2022/02/23 06:25:45;;;;;;;15.23;10.80;;;;;;;10.92;68.45;101358.25;5027069;27;103744;-49
2022/02/23 06:28:11;;;;;;;10.88;9.75;;;;;;;10.90;68.78;101355.81;5020974;27;104450;-49
2022/02/23 06:30:38;;;;;;;12.38;9.80;;;;;;;10.92;68.48;101358.25;5020703;27;102782;-49
2022/02/23 06:33:04;;;;;;;11.10;9.35;;;;;;;10.91;68.62;101370.22;5027973;27;102658;-49
2022/02/23 06:35:33;;;;;;;11.10;9.60;;;;;;;10.90;68.71;101358.53;5025156;27;104072;-49
2022/02/23 06:38:00;;;;;;;12.02;9.32;;;;;;;10.91;68.74;101359.34;5029884;27;103720;-49
2022/02/23 06:40:28;;;;;;;13.65;10.00;;;;;;;10.90;68.84;101366.69;5044424;27;102868;-49
2022/02/23 06:42:55;;;;;;;10.95;9.07;;;;;;;10.91;68.10;101362.06;5042451;27;102180;-50
2022/02/23 06:45:22;;;;;;;12.07;9.82;;;;;;;10.90;68.43;101360.44;5036987;27;104158;-50
2022/02/23 06:47:48;;;;;;;14.45;9.95;;;;;;;10.91;68.27;101367.50;5035572;27;102167;-49
2022/02/23 06:50:14;;;;;;;12.07;9.38;;;;;;;10.91;68.71;101370.22;5041392;27;102862;-49
2022/02/23 06:52:41;;;;;;;11.95;8.93;;;;;;;10.89;68.17;101375.09;5043384;27;102680;-49
2022/02/23 06:55:10;;;;;;;11.63;8.50;;;;;;;10.90;68.52;101372.13;5031092;27;103771;-50
2022/02/23 06:57:40;;;;;;;11.45;8.68;;;;;;;10.90;68.24;101374.03;5039275;27;102470;-49
2022/02/23 07:00:09;;;;;;;12.73;9.68;;;;;;;10.90;68.32;101374.03;5028614;27;102871;-49
2022/02/23 07:02:36;;;;;;;11.65;9.25;;;;;;;10.90;68.72;101371.31;5021748;27;102641;-49
2022/02/23 07:05:03;;;;;;;10.57;9.20;;;;;;;10.90;68.24;101382.22;5036911;27;103853;-49
2022/02/23 07:07:31;;;;;;;12.02;8.93;;;;;;;10.90;68.50;101387.66;5031836;27;103716;-49
2022/02/23 07:09:57;;;;;;;12.88;8.82;;;;;;;10.89;68.64;101386.84;5023693;27;102389;-49
2022/02/23 07:12:25;;;;;;;11.73;8.88;;;;;;;10.90;68.62;101393.09;5022659;27;102657;-50
2022/02/23 07:14:53;;;;;;;10.25;7.85;;;;;;;10.89;68.22;101384.13;5017087;27;103658;-49
2022/02/23 07:17:19;;;;;;;9.85;8.50;;;;;;;10.90;68.52;101393.09;5016223;27;102664;-49
2022/02/23 07:19:46;;;;;;;11.23;8.32;;;;;;;10.89;68.61;101391.44;5010925;27;102643;-49
2022/02/23 07:22:12;;;;;;;11.13;8.25;;;;;;;10.89;68.45;101392.28;5016157;27;102671;-50
2022/02/23 07:24:39;;;;;;;12.40;8.43;;;;;;;10.88;68.40;101395.25;5013449;27;104971;-50
2022/02/23 07:27:10;;;;;;;12.95;7.93;;;;;;;10.88;68.01;101396.06;5015118;27;104037;-49
2022/02/23 07:29:36;;;;;;;10.35;7.85;;;;;;;10.88;68.24;101401.50;5017127;27;104107;-49
2022/02/23 07:32:04;;;;;;;10.30;7.88;;;;;;;10.88;68.18;101400.69;5027248;27;103259;-49
2022/02/23 07:34:31;;;;;;;10.40;7.90;;;;;;;10.89;68.19;101391.44;5032133;27;103917;-49
2022/02/23 07:36:58;;;;;;;10.60;8.05;;;;;;;10.88;68.47;101403.41;5046556;27;102532;-49
2022/02/23 07:39:24;;;;;;;11.93;8.30;;;;;;;10.89;68.46;101396.88;5045125;27;102348;-49
2022/02/23 07:41:50;;;;;;;13.95;7.78;;;;;;;10.90;68.15;101401.28;5032968;27;102582;-50
2022/02/23 07:44:17;;;;;;;9.85;7.55;;;;;;;10.90;68.02;101399.38;5024894;27;104187;-49
2022/02/23 07:46:43;;;;;;;10.25;7.45;;;;;;;10.90;68.13;101406.72;5042244;27;102449;-50
2022/02/23 07:49:12;;;;;;;11.10;7.85;;;;;;;10.90;68.40;101404.00;5042408;27;102489;-50
2022/02/23 07:51:39;;;;;;;12.70;7.65;;;;;;;10.91;67.94;101402.91;5046971;27;102259;-49
2022/02/23 07:54:06;;;;;;;11.38;7.43;;;;;;;10.91;68.29;101400.19;5045980;27;103945;-49
2022/02/23 07:56:33;;;;;;;12.05;8.05;;;;;;;10.91;68.12;101402.91;5053472;27;102512;-49
2022/02/23 07:58:59;;;;;;;9.57;7.00;;;;;;;10.90;68.32;101399.38;5047060;27;102182;-49
2022/02/23 08:01:31;;;;;;;9.93;7.43;;;;;;;10.90;67.83;101398.56;5042280;27;102241;-49
2022/02/23 08:03:58;;;;;;;8.50;6.93;;;;;;;10.90;67.93;101404.00;5040371;27;107527;-49
2022/02/23 08:06:26;;;;;;;9.75;6.93;;;;;;;10.91;67.97;101416.53;5024721;27;102233;-50
2022/02/23 08:08:56;;;;;;;8.30;6.60;;;;;;;10.90;68.18;101404.00;5018119;27;102251;-50
2022/02/23 08:11:23;;;;;;;9.93;7.38;;;;;;;10.90;67.61;101406.72;5044848;27;102434;-50
2022/02/23 08:13:56;;;;;;;8.70;7.45;;;;;;;10.91;68.22;101405.63;5039682;27;103858;-49
2022/02/23 08:21:53;;;;;;;8.57;7.07;;;;;;;10.92;67.75;101394.47;5047918;27;103534;-49
2022/02/23 08:24:19;;;;;;;8.52;6.53;;;;;;;10.91;67.84;101379.22;5044724;27;102956;-48
2022/02/23 08:26:46;;;;;;;12.82;6.90;;;;;;;10.94;68.07;101378.72;5034319;27;102042;-50
2022/02/23 08:29:12;;;;;;;11.13;7.05;;;;;;;10.94;68.01;101377.91;5034256;27;102463;-50
2022/02/23 08:31:38;;;;;;;8.73;6.53;;;;;;;10.94;68.05;101386.88;5053277;27;102569;-51
2022/02/23 08:34:05;;;;;;;9.38;6.65;;;;;;;10.93;67.63;101374.34;5039812;27;103850;-50
2022/02/23 08:36:31;;;;;;;9.63;7.20;;;;;;;10.94;67.73;101377.91;5051957;27;102166;-50
2022/02/23 08:38:59;;;;;;;8.25;6.63;;;;;;;10.95;67.93;101379.53;5049569;27;102572;-50
2022/02/23 08:41:27;;;;;;;10.18;7.07;;;;;;;10.94;67.38;101367.00;5049532;27;102757;-50
2022/02/23 08:43:53;;;;;;;7.47;6.68;;;;;;;10.96;67.91;101370.28;5050797;27;102968;-50
2022/02/23 08:46:20;;;;;;;8.82;6.93;;;;;;;10.96;68.03;101362.09;5041843;27;102481;-51
2022/02/23 08:48:46;;;;;;;8.32;5.97;;;;;;;10.97;67.89;101369.22;5020688;27;102356;-51
2022/02/23 08:51:12;;;;;;;8.88;6.57;;;;;;;10.98;67.78;101368.13;5031161;27;102404;-50
2022/02/23 08:53:38;;;;;;;11.45;6.60;;;;;;;10.98;67.68;101368.13;5027407;27;103874;-50
2022/02/23 08:56:06;;;;;;;8.30;6.68;;;;;;;10.97;67.50;101367.31;5040336;27;102277;-50
2022/02/23 08:58:33;;;;;;;9.77;6.22;;;;;;;10.98;67.98;101363.50;5038527;27;102095;-51
2022/02/23 09:00:59;;;;;;;9.13;6.55;;;;;;;10.98;67.33;101359.97;5048476;27;104497;-52
2022/02/23 09:03:26;;;;;;;9.70;6.78;;;;;;;10.98;67.75;101351.78;5046133;27;104087;-50
2022/02/23 09:05:52;;;;;;;7.80;6.30;;;;;;;10.98;67.50;101352.59;5034591;27;102283;-50
2022/02/23 09:08:20;;;;;;;7.88;6.05;;;;;;;10.98;67.57;101349.06;5053313;27;103925;-50
2022/02/23 09:10:46;;;;;;;8.80;6.75;;;;;;;10.99;67.52;101354.22;5046978;27;103080;-50
2022/02/23 09:13:14;;;;;;;7.47;6.20;;;;;;;10.99;67.51;101353.41;5045370;27;103929;-50
2022/02/23 09:15:41;;;;;;;9.48;6.30;;;;;;;10.98;67.71;101358.06;5043464;27;103325;-50
2022/02/23 09:18:08;;;;;;;7.82;6.30;;;;;;;10.99;67.60;101361.59;5030700;27;102837;-51
2022/02/23 09:20:34;;;;;;;7.70;5.88;;;;;;;10.99;67.33;101365.13;5030869;27;102842;-51
2022/02/23 09:23:01;;;;;;;8.93;5.82;;;;;;;10.99;67.18;101365.13;5047422;27;103892;-51
2022/02/23 09:25:27;;;;;;;6.93;5.25;;;;;;;11.01;67.40;101375.78;5045502;27;102100;-50
2022/02/23 09:27:54;;;;;;;8.55;5.72;;;;;;;11.02;67.06;101369.25;5041556;27;104004;-50
2022/02/23 09:30:21;;;;;;;7.45;5.35;;;;;;;11.02;67.39;101375.50;5048091;27;102365;-50
2022/02/23 09:32:49;;;;;;;7.35;5.20;;;;;;;11.03;67.04;101374.47;5044869;27;104054;-50
2022/02/23 09:35:16;;;;;;;7.93;5.57;;;;;;;11.03;66.71;101374.47;5037824;27;102082;-50
2022/02/23 09:37:42;;;;;;;6.85;4.97;;;;;;;11.04;66.70;101372.56;5042590;27;102350;-50
2022/02/23 09:40:10;;;;;;;6.53;4.88;;;;;;;11.03;66.98;101370.88;5047480;27;102178;-51
2022/02/23 09:42:37;;;;;;;7.40;5.10;;;;;;;11.03;67.04;101369.00;5044989;27;103907;-51
2022/02/23 09:45:06;;;;;;;8.25;5.25;;;;;;;11.04;66.87;101367.91;5047231;27;102768;-51
2022/02/23 09:47:35;;;;;;;9.73;4.75;;;;;;;11.05;66.72;101357.84;5025578;27;102206;-50
2022/02/23 09:50:04;;;;;;;7.78;4.93;;;;;;;11.06;66.58;101362.19;5029825;27;102237;-50
2022/02/23 09:52:32;;;;;;;5.82;4.95;;;;;;;11.06;66.70;101362.19;5027569;27;104557;-51
2022/02/23 09:55:00;;;;;;;6.78;5.22;;;;;;;11.05;66.76;101353.22;5028321;27;102363;-50
2022/02/23 09:57:28;;;;;;;8.55;6.10;;;;;;;11.08;66.47;101362.78;5044156;27;102388;-50
2022/02/23 09:59:55;;;;;;;7.25;5.22;;;;;;;11.07;66.80;101350.22;5048473;27;102368;-51
2022/02/23 10:02:22;;;;;;;6.22;4.85;;;;;;;11.07;66.89;101350.22;5042346;27;104085;-51
2022/02/23 10:04:50;;;;;;;5.40;4.90;;;;;;;11.09;66.96;101339.91;5038931;27;102095;-51
2022/02/23 10:07:27;;;;;;;7.25;4.88;;;;;;;11.07;66.94;101342.03;5045399;27;102414;-50
2022/02/23 10:09:57;;;;;;;5.18;4.68;;;;;;;11.08;66.70;101335.53;5041245;27;102562;-51
2022/02/23 10:12:26;;;;;;;7.85;5.20;;;;;;;11.08;66.76;101335.53;5045345;27;103728;-50
2022/02/23 10:15:05;;;;;;;6.32;5.10;;;;;;;11.09;66.94;101330.91;5041582;27;102475;-51
2022/02/23 10:17:37;;;;;;;6.85;5.10;;;;;;;11.09;66.95;101331.72;5040356;27;102579;-51
2022/02/23 10:20:23;;;;;;;5.95;4.63;;;;;;;11.09;67.08;101330.91;5031165;27;104006;-51
2022/02/23 10:22:50;;;;;;;5.82;4.47;;;;;;;11.10;66.85;101333.34;5025135;27;103855;-51
2022/02/23 10:25:21;;;;;;;6.13;4.47;;;;;;;11.10;66.38;101332.53;5034701;27;103101;-51
2022/02/23 10:27:48;;;;;;;5.78;4.68;;;;;;;11.11;66.46;101328.72;5039901;27;102732;-51
2022/02/23 10:30:26;;;;;;;6.32;4.75;;;;;;;11.10;66.99;101333.34;5025142;27;102314;-50
2022/02/23 10:32:53;;;;;;;7.15;4.63;;;;;;;11.11;66.45;101323.28;5029877;27;103986;-51
2022/02/23 10:35:27;;;;;;;5.15;4.35;;;;;;;11.11;66.49;101335.03;5039107;27;102585;-50
2022/02/23 10:37:53;;;;;;;5.95;4.63;;;;;;;11.12;66.43;101324.94;5024571;27;102906;-51
2022/02/23 10:40:19;;;;;;;6.63;4.47;;;;;;;11.11;66.38;101324.13;5035865;27;102387;-53
2022/02/23 10:42:45;;;;;;;5.63;4.30;;;;;;;11.11;66.71;101318.69;5041837;27;103986;-51
2022/02/23 10:45:19;;;;;;;5.72;4.32;;;;;;;11.11;66.60;101313.22;5035286;27;102265;-50
2022/02/23 10:47:47;;;;;;;5.00;3.90;;;;;;;11.12;66.85;101320.31;5037011;27;103187;-50
2022/02/23 10:50:15;;;;;;;5.20;4.70;;;;;;;11.11;66.27;101313.22;5046302;27;102324;-50
2022/02/23 10:52:51;;;;;;;5.63;4.30;;;;;;;11.12;66.55;101314.03;5018786;27;107454;-50
2022/02/23 10:55:21;;;;;;;5.10;4.03;;;;;;;11.14;66.59;101317.31;5035623;27;102724;-50
2022/02/23 10:57:49;;;;;;;5.50;4.10;;;;;;;11.12;66.52;101309.41;5040847;27;103022;-50
2022/02/23 11:00:18;;;;;;;5.25;4.20;;;;;;;11.13;66.92;101310.22;5021425;27;106716;-50
2022/02/23 11:02:45;;;;;;;6.15;4.32;;;;;;;11.13;66.44;101304.78;5041254;27;108044;-51
2022/02/23 11:05:13;;;;;;;5.50;4.57;;;;;;;11.12;66.22;101298.53;5046307;27;102169;-51
2022/02/23 11:07:42;;;;;;;5.05;3.92;;;;;;;11.12;66.80;101298.53;5017634;27;102262;-50
2022/02/23 11:10:13;;;;;;;6.78;4.53;;;;;;;11.12;66.78;101293.06;5034984;27;106619;-50
2022/02/23 11:12:44;;;;;;;6.13;4.32;;;;;;;11.11;66.80;101291.44;5020510;27;104013;-51